Time;durP1;ratioP1;P1;durP2;ratioP2;P2;SDS_P1;SDS_P2;PMS_P1;PMS_P2;Temp;Humidity;BMP_temperature;BMP_pressure;BME280_temperature;BME280_humidity;BME280_pressure;Samples;Min_cycle;Max_cycle;Signal;HPM_P1;HPM_P2
2023/03/21 00:02:04;;;;;;;5.78;4.30;;;;;;;11.57;100.00;98350.34;4867118;29;20109;-85
2023/03/21 00:04:48;;;;;;;5.45;4.28;;;;;;;11.57;100.00;98350.34;4874177;29;20127;-85
2023/03/21 00:07:32;;;;;;;6.40;4.00;;;;;;;11.71;100.00;98355.47;4872156;29;20044;-84
2023/03/21 00:10:20;;;;;;;5.45;4.55;;;;;;;11.76;100.00;98342.47;4871150;29;20043;-84
2023/03/21 00:13:04;;;;;;;6.45;4.70;;;;;;;11.64;100.00;98352.13;4871501;29;20045;-82
2023/03/21 00:15:53;;;;;;;5.97;4.63;;;;;;;11.58;100.00;98338.81;4868833;29;20039;-85
2023/03/21 00:18:40;;;;;;;6.50;5.05;;;;;;;11.62;100.00;98341.81;4869679;29;20538;-85
2023/03/21 00:21:27;;;;;;;8.70;5.20;;;;;;;11.52;100.00;98326.56;4873718;29;20088;-84
2023/03/21 00:24:11;;;;;;;6.50;5.05;;;;;;;11.56;100.00;98335.59;4872287;29;20544;-83
2023/03/21 00:26:56;;;;;;;7.05;5.50;;;;;;;11.54;100.00;98329.78;4872737;29;20412;-84
2023/03/21 00:29:39;;;;;;;6.55;5.57;;;;;;;11.60;100.00;98327.31;4872448;29;20066;-85
2023/03/21 00:32:23;;;;;;;7.45;6.50;;;;;;;11.50;100.00;98344.38;4868687;29;20121;-86
2023/03/21 00:35:07;;;;;;;;;;;;;;;11.62;100.00;98320.78;4868427;29;20116;-85
2023/03/21 00:37:51;;;;;;;10.38;7.47;;;;;;;11.46;100.00;98326.63;4873427;29;19922;-84
2023/03/21 00:40:35;;;;;;;11.95;7.30;;;;;;;11.24;100.00;98324.41;4874079;29;20068;-83
2023/03/21 00:43:22;;;;;;;9.88;7.22;;;;;;;11.46;100.00;98319.56;4865588;29;20067;-84
2023/03/21 00:46:06;;;;;;;9.93;7.35;;;;;;;11.46;100.00;98301.16;4870938;29;20079;-85
2023/03/21 00:48:50;;;;;;;11.98;7.65;;;;;;;11.20;100.00;98296.97;4873237;29;20519;-86
2023/03/21 00:51:34;;;;;;;13.32;8.55;;;;;;;11.23;100.00;98293.91;4868899;29;20049;-85
2023/03/21 00:54:18;;;;;;;15.05;8.48;;;;;;;11.17;100.00;98295.56;4872823;29;20523;-86
2023/03/21 00:57:03;;;;;;;12.90;8.52;;;;;;;11.26;100.00;98299.53;4868240;29;20105;-84
2023/03/21 00:59:47;;;;;;;11.57;8.27;;;;;;;11.14;100.00;98290.75;4868304;29;20510;-83
2023/03/21 01:02:30;;;;;;;15.05;8.40;;;;;;;11.02;100.00;98295.13;4873572;29;20101;-86
2023/03/21 01:06:00;;;;;;;16.80;7.95;;;;;;;11.05;100.00;98290.22;4872536;29;20052;-86
2023/03/21 01:08:20;;;;;;;12.45;8.18;;;;;;;11.08;100.00;98281.13;4867211;29;20197;-83
2023/03/21 01:11:13;;;;;;;16.13;8.30;;;;;;;11.12;100.00;98279.66;4866291;29;20070;-83
2023/03/21 01:13:57;;;;;;;14.43;8.88;;;;;;;11.07;100.00;98275.06;4867629;29;20109;-82
2023/03/21 01:16:42;;;;;;;12.25;8.00;;;;;;;11.04;100.00;98261.56;4871087;29;20071;-84
2023/03/21 01:19:27;;;;;;;15.18;9.02;;;;;;;10.99;100.00;98257.75;4872088;29;20079;-83
2023/03/21 01:22:11;;;;;;;14.10;8.93;;;;;;;10.85;100.00;98248.41;4865325;29;20052;-84
2023/03/21 01:24:55;;;;;;;14.23;8.95;;;;;;;10.93;100.00;98255.22;4869719;29;20044;-83
2023/03/21 01:27:38;;;;;;;12.98;8.40;;;;;;;10.94;100.00;98246.31;4872791;29;20101;-83
2023/03/21 01:30:22;;;;;;;14.68;8.65;;;;;;;10.89;100.00;98239.06;4866663;29;20080;-83
2023/03/21 01:33:06;;;;;;;14.05;8.93;;;;;;;10.91;100.00;98231.78;4868921;29;20171;-83
2023/03/21 01:35:50;;;;;;;11.60;7.90;;;;;;;10.80;100.00;98229.84;4871173;29;20047;-85
2023/03/21 01:38:34;;;;;;;14.90;8.75;;;;;;;10.89;100.00;98228.56;4867498;29;20104;-84
2023/03/21 01:41:27;;;;;;;12.93;8.07;;;;;;;11.05;100.00;98226.41;4873030;29;20077;-83
2023/03/21 01:44:18;;;;;;;14.07;8.73;;;;;;;10.80;100.00;98214.09;4866606;29;20056;-85
2023/03/21 01:47:02;;;;;;;12.20;7.75;;;;;;;10.66;100.00;98211.63;4863789;29;20131;-86
2023/03/21 01:49:50;;;;;;;16.02;8.55;;;;;;;10.82;100.00;98201.59;4870244;29;20040;-83
2023/03/21 01:52:37;;;;;;;17.67;8.32;;;;;;;10.65;100.00;98196.88;4872229;29;20044;-83
2023/03/21 01:55:20;;;;;;;13.70;8.35;;;;;;;10.60;100.00;98191.47;4871928;29;20528;-84
2023/03/21 01:58:08;;;;;;;12.18;7.72;;;;;;;10.54;100.00;98185.28;4871558;29;20564;-84
2023/03/21 02:00:55;;;;;;;10.68;7.18;;;;;;;10.49;100.00;98184.31;4868970;29;20067;-84
2023/03/21 02:03:48;;;;;;;12.20;7.60;;;;;;;10.66;100.00;98193.25;4865934;29;20052;-83
2023/03/21 02:06:40;;;;;;;16.77;9.10;;;;;;;10.68;100.00;98193.81;4870122;29;20045;-83
2023/03/21 02:09:30;;;;;;;15.77;8.40;;;;;;;10.68;100.00;98199.06;4871186;29;20068;-84
2023/03/21 02:12:15;;;;;;;13.65;8.30;;;;;;;10.51;100.00;98190.94;4869511;29;20524;-83
2023/03/21 02:14:59;;;;;;;14.38;8.30;;;;;;;10.74;100.00;98186.09;4870332;29;20048;-83
2023/03/21 02:18:08;;;;;;;12.68;8.30;;;;;;;10.70;100.00;98189.16;4868824;29;20044;-84
2023/03/21 02:20:55;;;;;;;14.25;8.32;;;;;;;10.70;100.00;98189.16;4868243;29;20552;-85
2023/03/21 02:23:57;;;;;;;11.80;8.20;;;;;;;10.95;100.00;98185.69;4865507;29;20569;-83
2023/03/21 02:27:00;;;;;;;13.32;7.80;;;;;;;10.80;100.00;98187.84;4868475;29;20412;-84
2023/03/21 02:29:56;;;;;;;11.48;7.50;;;;;;;10.89;100.00;98191.81;4868323;29;20498;-84
2023/03/21 02:32:55;;;;;;;12.10;8.50;;;;;;;11.02;100.00;98187.47;4866175;29;20510;-84
2023/03/21 02:36:11;;;;;;;15.80;8.27;;;;;;;10.99;100.00;98183.44;4867281;29;20051;-84
2023/03/21 02:39:14;;;;;;;12.18;7.72;;;;;;;11.07;100.00;98177.88;4846124;29;20100;-84
2023/03/21 02:42:05;;;;;;;14.63;8.93;;;;;;;10.93;100.00;98179.84;4872662;29;20089;-84
2023/03/21 02:45:30;;;;;;;12.82;8.15;;;;;;;11.04;100.00;98177.53;4866076;29;20391;-85
2023/03/21 02:48:23;;;;;;;11.93;6.95;;;;;;;10.91;100.00;98174.03;4871536;29;20068;-83
2023/03/21 02:51:10;;;;;;;10.35;7.28;;;;;;;10.86;100.00;98166.00;4872329;29;20074;-84
2023/03/21 02:53:59;;;;;;;14.20;7.47;;;;;;;10.93;100.00;98176.44;4867292;29;20060;-85
2023/03/21 02:56:46;;;;;;;10.52;7.00;;;;;;;10.88;100.00;98176.28;4867491;29;20086;-85
2023/03/21 02:59:32;;;;;;;10.27;6.78;;;;;;;10.98;100.00;98169.50;4862263;29;20141;-86
2023/03/21 03:02:21;;;;;;;10.98;6.00;;;;;;;11.03;100.00;98157.56;4862405;29;20048;-85
2023/03/21 03:05:26;;;;;;;10.23;6.90;;;;;;;11.02;100.00;98153.31;4867612;29;20048;-88
2023/03/21 03:08:34;;;;;;;13.05;6.80;;;;;;;10.94;100.00;98147.31;4874847;29;20105;-87
2023/03/21 03:11:27;;;;;;;7.97;5.43;;;;;;;10.88;100.00;98145.59;4871563;29;20119;-85
2023/03/21 03:14:33;;;;;;;6.85;5.45;;;;;;;10.94;100.00;98155.19;4872845;29;20408;-84
2023/03/21 03:17:54;;;;;;;9.18;5.50;;;;;;;11.03;100.00;98139.16;4870246;29;20445;-84
2023/03/21 03:20:59;;;;;;;6.68;5.20;;;;;;;11.00;100.00;98129.91;4873631;29;20049;-83
2023/03/21 03:23:56;;;;;;;8.10;5.35;;;;;;;11.02;100.00;98127.06;4872423;29;20040;-85
2023/03/21 03:26:48;;;;;;;9.75;5.10;;;;;;;11.06;100.00;98125.59;4871925;29;20494;-85
2023/03/21 03:29:36;;;;;;;7.25;5.05;;;;;;;11.02;100.00;98130.47;4871572;29;20053;-84
2023/03/21 03:32:29;;;;;;;6.40;5.07;;;;;;;11.06;100.00;98125.59;4871566;29;20154;-84
2023/03/21 03:35:22;;;;;;;6.80;5.57;;;;;;;10.95;100.00;98120.03;4871638;29;20044;-85
2023/03/21 03:38:08;;;;;;;7.63;5.38;;;;;;;11.02;100.00;98119.97;4867856;29;20048;-85
2023/03/21 03:41:02;;;;;;;9.57;5.68;;;;;;;11.08;100.00;98129.59;4873978;29;20044;-84
2023/03/21 03:43:52;;;;;;;7.90;6.32;;;;;;;10.99;100.00;98118.56;4867327;29;20128;-84
2023/03/21 03:47:05;;;;;;;9.05;5.95;;;;;;;11.07;100.00;98129.81;4870112;29;20189;-86
2023/03/21 03:49:59;;;;;;;9.05;5.82;;;;;;;11.13;100.00;98118.44;4873119;29;20041;-86
2023/03/21 03:53:07;;;;;;;8.55;6.60;;;;;;;11.14;100.00;98114.78;4869245;29;20101;-84
2023/03/21 03:55:53;;;;;;;10.30;6.43;;;;;;;10.97;100.00;98104.09;4870391;29;20039;-84
2023/03/21 03:58:38;;;;;;;9.60;6.35;;;;;;;10.94;100.00;98100.06;4853416;29;20097;-84
2023/03/21 04:01:22;;;;;;;8.27;6.88;;;;;;;11.04;100.00;98102.16;4851435;29;20047;-85
2023/03/21 04:04:06;;;;;;;12.27;7.60;;;;;;;10.86;100.00;98109.03;4856205;29;20089;-84
2023/03/21 04:06:50;;;;;;;10.57;6.80;;;;;;;10.86;100.00;98097.75;4854550;29;20576;-85
2023/03/21 04:09:35;;;;;;;8.20;6.75;;;;;;;10.79;100.00;98097.81;4841242;29;20048;-83
2023/03/21 04:12:20;;;;;;;11.02;7.03;;;;;;;10.78;100.00;98098.84;4852005;29;20044;-84
2023/03/21 04:15:05;;;;;;;13.27;6.65;;;;;;;10.82;100.00;98088.72;4841614;29;20098;-85
2023/03/21 04:17:50;;;;;;;10.77;7.43;;;;;;;10.75;100.00;98080.91;4835911;29;20048;-86
2023/03/21 04:20:34;;;;;;;13.07;7.65;;;;;;;10.78;100.00;98084.91;4848744;29;20269;-86
2023/03/21 04:23:19;;;;;;;12.40;7.40;;;;;;;10.93;100.00;98082.72;4840348;29;20053;-88
2023/03/21 04:26:04;;;;;;;9.70;7.20;;;;;;;10.98;100.00;98085.47;4858013;29;20124;-87
2023/03/21 04:28:50;;;;;;;11.98;6.88;;;;;;;11.00;100.00;98088.69;4853803;29;20097;-85
2023/03/21 04:31:34;;;;;;;12.68;6.68;;;;;;;11.03;100.00;98081.41;4853770;29;20107;-87
2023/03/21 04:34:22;;;;;;;11.63;7.28;;;;;;;10.90;100.00;98067.41;4852517;29;20053;-86
2023/03/21 04:37:09;;;;;;;9.85;6.70;;;;;;;10.92;100.00;98075.84;4855903;29;20045;-86
2023/03/21 04:39:54;;;;;;;11.68;6.45;;;;;;;11.04;100.00;98062.00;4849611;29;20080;-85
2023/03/21 04:42:38;;;;;;;9.88;6.45;;;;;;;11.00;100.00;98066.88;4863332;29;20092;-86
2023/03/21 04:45:21;;;;;;;9.60;6.72;;;;;;;10.89;100.00;98057.09;4849892;29;20068;-87
2023/03/21 04:48:06;;;;;;;13.18;7.47;;;;;;;11.00;100.00;98051.13;4856538;29;20106;-85
2023/03/21 04:50:50;;;;;;;10.48;7.53;;;;;;;10.98;100.00;98051.31;4846926;29;20053;-84
2023/03/21 04:53:37;;;;;;;9.77;7.88;;;;;;;10.90;100.00;98058.72;4862961;29;20057;-85
2023/03/21 04:56:22;;;;;;;14.38;8.55;;;;;;;10.93;100.00;98045.94;4866720;29;20107;-85
2023/03/21 04:59:12;;;;;;;15.85;8.20;;;;;;;11.12;100.00;98041.47;4867113;29;20048;-85
2023/03/21 05:01:57;;;;;;;13.85;7.90;;;;;;;11.14;100.00;98044.69;4870233;29;20557;-85
2023/03/21 05:04:41;;;;;;;13.50;7.15;;;;;;;11.14;100.00;98041.25;4870506;29;20506;-85
2023/03/21 05:07:25;;;;;;;10.23;7.03;;;;;;;11.03;100.00;98028.88;4867478;29;20107;-86
2023/03/21 05:10:11;;;;;;;10.73;7.57;;;;;;;10.97;100.00;98018.22;4865653;29;20092;-85
2023/03/21 05:12:55;;;;;;;15.68;7.63;;;;;;;10.96;100.00;98028.97;4864181;29;20052;-86
2023/03/21 05:15:39;;;;;;;13.70;7.35;;;;;;;10.89;100.00;98018.53;4868800;29;20047;-84
2023/03/21 05:18:26;;;;;;;16.52;7.75;;;;;;;10.96;100.00;98023.72;4868577;29;20540;-85
2023/03/21 05:21:10;;;;;;;13.50;7.68;;;;;;;10.99;100.00;98010.13;4869401;29;20111;-86
2023/03/21 05:23:57;;;;;;;13.48;8.18;;;;;;;10.91;100.00;98016.50;4862020;29;20060;-85
2023/03/21 05:26:43;;;;;;;10.65;8.00;;;;;;;10.94;100.00;98015.25;4873248;29;20126;-86
2023/03/21 05:29:29;;;;;;;11.82;8.27;;;;;;;11.00;100.00;98015.16;4871734;29;20397;-86
2023/03/21 05:32:13;;;;;;;10.63;7.90;;;;;;;11.08;100.00;98010.63;4874087;29;20052;-88
2023/03/21 05:34:57;;;;;;;13.45;7.53;;;;;;;11.06;100.00;98023.97;4872847;29;20047;-87
2023/03/21 05:37:41;;;;;;;12.88;7.00;;;;;;;11.04;100.00;98015.50;4866962;29;20053;-86
2023/03/21 05:40:25;;;;;;;12.77;7.95;;;;;;;10.94;100.00;98008.16;4872949;29;20471;-86
2023/03/21 05:43:09;;;;;;;13.93;8.93;;;;;;;10.80;100.00;98010.16;4870077;29;20397;-87
2023/03/21 05:45:53;;;;;;;15.65;8.68;;;;;;;10.89;100.00;98005.41;4868129;29;20056;-88
2023/03/21 05:48:37;;;;;;;14.48;9.38;;;;;;;10.86;100.00;98009.28;4867816;29;20460;-84
2023/03/21 05:51:21;;;;;;;17.45;10.27;;;;;;;10.98;100.00;98000.66;4871567;29;20102;-85
2023/03/21 05:54:05;;;;;;;19.13;9.82;;;;;;;11.03;100.00;98013.13;4870794;29;20048;-84
2023/03/21 05:56:49;;;;;;;19.83;10.88;;;;;;;10.98;100.00;98001.44;4877052;29;20060;-84
2023/03/21 05:59:33;;;;;;;19.83;11.20;;;;;;;10.96;100.00;98002.69;4872769;29;20408;-84
2023/03/21 06:02:17;;;;;;;18.35;11.70;;;;;;;10.90;100.00;97991.25;4873292;29;20128;-84
2023/03/21 06:05:01;;;;;;;21.25;13.10;;;;;;;10.94;100.00;97999.50;4867386;29;20130;-84
2023/03/21 06:07:45;;;;;;;19.90;11.40;;;;;;;11.04;100.00;97998.97;4871891;29;20063;-83
2023/03/21 06:10:29;;;;;;;19.25;11.45;;;;;;;10.94;100.00;97999.50;4865392;29;20068;-84
2023/03/21 06:13:14;;;;;;;18.17;11.32;;;;;;;10.99;100.00;97986.50;4865082;29;20527;-84
2023/03/21 06:15:58;;;;;;;21.20;12.05;;;;;;;11.08;100.00;97979.09;4863584;29;20040;-85
2023/03/21 06:18:42;;;;;;;21.02;11.73;;;;;;;11.02;100.00;97986.06;4873232;29;20519;-83
2023/03/21 06:21:26;;;;;;;18.58;11.38;;;;;;;11.03;100.00;97973.75;4868798;29;20560;-85
2023/03/21 06:24:10;;;;;;;17.83;11.32;;;;;;;11.04;100.00;97977.97;4868188;29;20063;-83
2023/03/21 06:26:54;;;;;;;18.52;12.38;;;;;;;11.12;100.00;97981.06;4868694;29;20044;-83
2023/03/21 06:29:39;;;;;;;19.45;10.95;;;;;;;11.04;100.00;97976.13;4864714;29;20116;-87
2023/03/21 06:32:22;;;;;;;17.33;10.40;;;;;;;11.00;100.00;97972.34;4871091;29;20056;-85
2023/03/21 06:35:07;;;;;;;16.85;10.38;;;;;;;10.88;100.00;97980.19;4869574;29;20041;-87
2023/03/21 06:37:51;;;;;;;13.73;9.98;;;;;;;11.15;100.00;97974.56;4871089;29;20097;-85
2023/03/21 06:40:37;;;;;;;17.30;9.60;;;;;;;11.17;100.00;97969.88;4872476;29;20044;-84
2023/03/21 06:43:21;;;;;;;14.48;10.00;;;;;;;11.13;100.00;97976.59;4874625;29;20520;-85
2023/03/21 06:46:05;;;;;;;13.82;9.07;;;;;;;11.21;100.00;97972.88;4875811;29;20044;-84
2023/03/21 06:48:49;;;;;;;14.50;8.52;;;;;;;11.04;100.00;97977.97;4874725;29;20112;-84
2023/03/21 06:51:34;;;;;;;18.90;8.20;;;;;;;11.19;100.00;97973.06;4874269;29;20410;-82
2023/03/21 06:54:18;;;;;;;15.43;8.80;;;;;;;11.25;100.00;97982.69;4884836;29;20114;-83
2023/03/21 06:57:02;;;;;;;13.48;8.93;;;;;;;11.32;100.00;97981.78;4873712;29;20114;-86
2023/03/21 06:59:46;;;;;;;14.63;9.38;;;;;;;11.31;100.00;97985.44;4873295;29;20068;-86
2023/03/21 07:02:30;;;;;;;16.80;9.23;;;;;;;11.37;100.00;97992.41;4879401;29;20044;-85
2023/03/21 07:05:15;;;;;;;15.15;9.38;;;;;;;11.33;100.00;97983.38;4871268;29;20052;-85
2023/03/21 07:08:00;;;;;;;18.77;11.60;;;;;;;11.42;100.00;97997.81;4877761;29;20076;-86
2023/03/21 07:10:45;;;;;;;12.05;8.55;;;;;;;11.28;100.00;97991.94;4876243;29;20097;-86
2023/03/21 07:13:30;;;;;;;13.38;7.53;;;;;;;11.26;100.00;97976.41;4872486;29;20124;-85
2023/03/21 07:16:16;;;;;;;9.88;6.55;;;;;;;11.29;100.00;97975.97;4880065;29;20044;-85
2023/03/21 07:19:00;;;;;;;10.88;6.07;;;;;;;11.35;100.00;97968.19;4875931;29;20429;-87
2023/03/21 07:21:44;;;;;;;13.77;6.30;;;;;;;11.25;100.00;97969.56;4874564;29;20191;-87
2023/03/21 07:24:28;;;;;;;10.07;5.50;;;;;;;11.18;100.00;97947.84;4872338;29;20056;-86
2023/03/21 07:27:12;;;;;;;10.82;5.53;;;;;;;11.09;100.00;97964.94;4875837;29;20056;-84
2023/03/21 07:29:56;;;;;;;9.32;5.30;;;;;;;11.21;100.00;97962.34;4874289;29;20416;-82
2023/03/21 07:32:40;;;;;;;14.93;5.88;;;;;;;11.28;100.00;97968.28;4894043;29;20527;-82
2023/03/21 07:35:24;;;;;;;9.32;5.57;;;;;;;11.21;100.00;97970.22;4869547;29;20500;-87
2023/03/21 07:38:08;;;;;;;10.93;5.82;;;;;;;11.30;100.00;97955.75;4879086;29;20048;-84
2023/03/21 07:40:52;;;;;;;10.88;5.78;;;;;;;11.45;100.00;97967.66;4868940;29;20056;-85
2023/03/21 07:43:38;;;;;;;10.70;5.90;;;;;;;11.61;100.00;97966.19;4875222;29;20056;-88
2023/03/21 07:46:22;;;;;;;10.32;6.80;;;;;;;11.78;100.00;97964.47;4871505;29;20104;-88
2023/03/21 07:49:07;;;;;;;12.55;6.20;;;;;;;11.82;100.00;97968.25;4873362;29;20084;-85
2023/03/21 07:51:52;;;;;;;11.20;7.38;;;;;;;12.04;100.00;97974.78;4874749;29;20087;-85
2023/03/21 07:54:36;;;;;;;12.65;7.07;;;;;;;12.24;100.00;97975.22;4868718;29;20116;-80
2023/03/21 07:57:19;;;;;;;;;;;;;;;12.43;100.00;97973.25;4872019;29;20137;-79
2023/03/21 08:00:05;;;;;;;9.90;5.47;;;;;;;12.21;100.00;97975.69;4868382;29;19964;-79
2023/03/21 08:02:53;;;;;;;7.93;4.93;;;;;;;12.36;100.00;97982.28;4874498;29;20085;-81
2023/03/21 08:05:38;;;;;;;9.27;5.20;;;;;;;12.38;100.00;97975.78;4865857;29;20125;-79
2023/03/21 08:08:22;;;;;;;8.98;5.07;;;;;;;12.62;100.00;97973.06;4873182;29;20072;-78
2023/03/21 08:11:07;;;;;;;8.20;5.05;;;;;;;12.62;100.00;97965.19;4871341;29;20105;-79
2023/03/21 08:13:51;;;;;;;6.20;4.32;;;;;;;12.79;100.00;97965.22;4871152;29;20532;-81
2023/03/21 08:16:38;;;;;;;6.25;4.28;;;;;;;12.82;100.00;97958.69;4869225;29;20114;-78
2023/03/21 08:19:23;;;;;;;6.28;3.83;;;;;;;13.03;100.00;97946.66;4869666;29;20506;-80
2023/03/21 08:22:07;;;;;;;7.10;4.05;;;;;;;13.01;100.00;97951.38;4867955;29;20052;-80
2023/03/21 08:24:51;;;;;;;9.60;3.78;;;;;;;13.19;100.00;97953.00;4872315;29;20125;-80
2023/03/21 08:27:35;;;;;;;7.18;3.25;;;;;;;12.89;100.00;97961.19;4865051;29;20056;-79
2023/03/21 08:30:22;;;;;;;4.80;3.53;;;;;;;13.02;100.00;97947.69;4871856;29;20052;-82
2023/03/21 08:33:07;;;;;;;6.10;3.35;;;;;;;12.88;100.00;97944.56;4869991;29;20072;-77
2023/03/21 08:35:51;;;;;;;6.07;4.10;;;;;;;12.88;100.00;97936.66;4871878;29;20121;-82
2023/03/21 08:38:38;;;;;;;4.47;3.60;;;;;;;12.84;100.00;97938.97;4871618;29;20132;-84
2023/03/21 08:41:24;;;;;;;9.43;3.53;;;;;;;12.74;100.00;97930.09;4872121;29;20125;-85
2023/03/21 08:44:08;;;;;;;6.05;3.55;;;;;;;12.85;100.00;97926.63;4865288;29;20056;-82
2023/03/21 08:46:52;;;;;;;7.93;3.40;;;;;;;12.78;100.00;97925.97;4868713;29;20083;-81
2023/03/21 08:49:36;;;;;;;7.05;3.53;;;;;;;13.04;100.00;97923.78;4872606;29;20411;-81
2023/03/21 08:52:20;;;;;;;10.13;3.47;;;;;;;12.82;100.00;97916.56;4867487;29;20109;-82
2023/03/21 08:55:05;;;;;;;4.60;3.03;;;;;;;12.93;100.00;97920.94;4865835;29;20105;-80
2023/03/21 08:57:49;;;;;;;8.43;3.83;;;;;;;12.97;100.00;97914.19;4868289;29;20064;-80
2023/03/21 09:00:33;;;;;;;9.00;3.55;;;;;;;13.00;100.00;97911.09;4868021;29;20107;-81
2023/03/21 09:03:18;;;;;;;6.93;3.25;;;;;;;13.19;100.00;97913.50;4867856;29;20511;-79
2023/03/21 09:06:03;;;;;;;7.93;3.60;;;;;;;12.99;100.00;97906.84;4866184;29;20109;-79
2023/03/21 09:08:52;;;;;;;5.88;3.40;;;;;;;12.74;100.00;97906.41;4868294;29;20047;-80
2023/03/21 09:11:36;;;;;;;12.32;3.58;;;;;;;12.95;100.00;97910.97;4873039;29;20396;-82
2023/03/21 09:14:20;;;;;;;6.90;3.10;;;;;;;12.91;100.00;97916.97;4866533;29;20064;-81
2023/03/21 09:17:04;;;;;;;7.07;3.75;;;;;;;12.71;100.00;97916.38;4867443;29;20043;-79
2023/03/21 09:19:49;;;;;;;8.43;3.78;;;;;;;12.97;100.00;97908.94;4868333;29;20076;-80
2023/03/21 09:22:34;;;;;;;9.20;3.60;;;;;;;13.21;100.00;97906.13;4868432;29;20076;-80
2023/03/21 09:25:18;;;;;;;8.32;3.83;;;;;;;13.49;100.00;97899.19;4870209;29;20068;-78
2023/03/21 09:28:04;;;;;;;8.10;3.83;;;;;;;13.59;100.00;97890.63;4870994;29;20037;-79
2023/03/21 09:30:48;;;;;;;6.20;3.40;;;;;;;13.57;100.00;97890.09;4867988;29;20048;-79
2023/03/21 09:33:32;;;;;;;9.20;3.40;;;;;;;13.57;100.00;97880.34;4866853;29;20136;-79
2023/03/21 09:36:20;;;;;;;;;;;;;;;13.66;100.00;97870.19;4872551;29;20551;-80
2023/03/21 09:39:04;;;;;;;8.27;3.95;;;;;;;13.91;100.00;97876.81;4867238;29;20286;-79
2023/03/21 09:42:16;;;;;;;7.20;3.60;;;;;;;14.10;100.00;97869.38;4862920;29;20453;-86
2023/03/21 09:45:26;;;;;;;5.32;2.97;;;;;;;14.27;100.00;97863.25;4870783;29;20055;-79
2023/03/21 09:48:52;;;;;;;9.95;3.90;;;;;;;14.42;100.00;97862.59;4871894;29;20109;-80
2023/03/21 09:51:44;;;;;;;7.68;3.28;;;;;;;14.40;100.00;97865.50;4866646;29;20094;-81
2023/03/21 09:54:36;;;;;;;5.28;2.58;;;;;;;14.29;100.00;97863.78;4867934;29;20116;-79
2023/03/21 09:57:31;;;;;;;10.02;3.05;;;;;;;13.99;100.00;97868.47;4866294;29;20511;-80
2023/03/21 10:00:33;;;;;;;8.40;2.88;;;;;;;14.02;100.00;97867.19;4866042;29;20057;-81
2023/03/21 10:03:23;;;;;;;5.75;2.67;;;;;;;13.84;100.00;97868.28;4866459;29;20144;-80
2023/03/21 10:06:14;;;;;;;7.68;2.53;;;;;;;13.98;100.00;97860.81;4864702;29;20052;-80
2023/03/21 10:09:11;;;;;;;8.32;2.42;;;;;;;13.93;100.00;97863.38;4870364;29;20051;-80
2023/03/21 10:12:04;;;;;;;6.97;2.30;;;;;;;13.81;100.00;97851.13;4869444;29;20048;-81
2023/03/21 10:14:56;;;;;;;6.00;3.00;;;;;;;13.70;100.00;97841.47;4873959;29;20044;-80
2023/03/21 10:17:43;;;;;;;7.32;2.35;;;;;;;13.51;100.00;97844.38;4865999;29;20113;-80
2023/03/21 10:20:34;;;;;;;8.15;2.42;;;;;;;13.52;100.00;97842.56;4873043;29;20124;-84
2023/03/21 10:23:21;;;;;;;6.15;2.08;;;;;;;13.49;100.00;97841.19;4872493;29;20116;-85
2023/03/21 10:26:10;;;;;;;3.45;2.13;;;;;;;13.52;100.00;97834.66;4871135;29;20056;-80
2023/03/21 10:28:57;;;;;;;6.05;2.28;;;;;;;13.69;100.00;97845.16;4866256;29;20101;-85
2023/03/21 10:31:43;;;;;;;4.18;2.10;;;;;;;13.51;100.00;97833.84;4866454;29;20508;-86
2023/03/21 10:34:36;;;;;;;7.95;2.40;;;;;;;13.61;100.00;97827.91;4867036;29;20048;-85
2023/03/21 10:37:22;;;;;;;4.70;2.70;;;;;;;13.73;100.00;97814.59;4861032;29;20057;-88
2023/03/21 10:40:08;;;;;;;6.82;2.38;;;;;;;13.51;100.00;97820.66;4863213;29;20514;-89
2023/03/21 10:43:13;;;;;;;8.73;2.53;;;;;;;13.73;100.00;97806.69;4880882;29;20535;-88
2023/03/21 10:45:57;;;;;;;4.80;2.40;;;;;;;14.22;100.00;97816.47;4881303;29;20484;-86
2023/03/21 10:48:46;;;;;;;2.33;2.13;;;;;;;14.32;100.00;97799.94;4864171;29;20052;-90
2023/03/21 10:51:34;;;;;;;4.80;2.38;;;;;;;14.59;100.00;97799.13;4870638;29;20093;-88
2023/03/21 10:54:21;;;;;;;3.42;1.58;;;;;;;14.64;100.00;97801.81;4885911;29;20056;-85
2023/03/21 10:57:12;;;;;;;5.47;1.83;;;;;;;14.93;100.00;97780.38;4881324;29;20068;-86
2023/03/21 11:00:07;;;;;;;3.13;1.40;;;;;;;15.62;100.00;97775.19;4877183;29;20085;-84
2023/03/21 11:02:55;;;;;;;2.10;1.38;;;;;;;15.47;100.00;97786.50;4862115;29;20053;-84
2023/03/21 11:05:41;;;;;;;7.57;2.80;;;;;;;15.98;100.00;97785.16;4864998;29;20068;-83
2023/03/21 11:08:28;;;;;;;4.63;1.55;;;;;;;15.49;100.00;97781.75;4866341;29;20052;-88
2023/03/21 11:11:23;;;;;;;4.13;1.80;;;;;;;14.89;100.00;97776.66;4864846;29;20515;-86
2023/03/21 11:14:24;;;;;;;3.55;2.00;;;;;;;14.53;100.00;97779.81;4879891;29;20047;-85
2023/03/21 11:17:28;;;;;;;4.65;1.60;;;;;;;14.39;100.00;97768.88;4873047;29;20053;-86
2023/03/21 11:20:20;;;;;;;1.85;1.42;;;;;;;14.02;100.00;97780.13;4874412;29;20092;-86
2023/03/21 11:23:05;;;;;;;2.80;1.45;;;;;;;13.99;100.00;97791.19;4879911;29;20430;-85
2023/03/21 11:25:50;;;;;;;2.97;1.20;;;;;;;13.87;100.00;97782.59;4863856;29;20523;-86
2023/03/21 11:28:40;;;;;;;4.45;1.30;;;;;;;14.10;100.00;97787.59;4879399;29;20136;-85
2023/03/21 11:31:43;;;;;;;2.15;1.02;;;;;;;13.97;100.00;97777.44;4870166;29;20101;-85
2023/03/21 11:34:55;;;;;;;1.40;1.27;;;;;;;14.45;100.00;97800.59;4901971;29;20101;-84
2023/03/21 11:37:46;;;;;;;4.03;1.00;;;;;;;14.89;100.00;97800.44;4875608;29;20325;-85
2023/03/21 11:40:33;;;;;;;5.20;1.15;;;;;;;14.56;100.00;97794.38;4875599;29;20064;-86
2023/03/21 11:43:17;;;;;;;3.20;1.00;;;;;;;14.60;100.00;97790.16;4869793;29;20476;-86
2023/03/21 11:46:08;;;;;;;2.15;1.20;;;;;;;14.94;100.00;97795.22;4875572;29;20100;-84
2023/03/21 11:48:55;;;;;;;4.82;1.30;;;;;;;14.96;100.00;97793.13;4874443;29;20090;-87
2023/03/21 11:52:07;;;;;;;2.28;1.17;;;;;;;15.40;100.00;97809.75;4872618;29;20421;-86
2023/03/21 11:55:13;;;;;;;7.55;1.52;;;;;;;14.86;100.00;97798.31;4881472;29;20519;-89
2023/03/21 11:58:27;;;;;;;6.18;1.42;;;;;;;15.10;100.00;97785.53;4877119;29;20413;-88
2023/03/21 12:01:18;;;;;;;4.25;1.20;;;;;;;15.37;100.00;97781.97;4880337;29;20065;-88
2023/03/21 12:04:18;;;;;;;5.68;1.27;;;;;;;15.44;100.00;97765.88;4877793;29;20174;-90
2023/03/21 12:07:26;;;;;;;2.80;1.30;;;;;;;15.11;100.00;97767.81;4878223;29;20044;-89
2023/03/21 12:10:20;;;;;;;4.47;1.35;;;;;;;14.47;100.00;97766.81;4879814;29;20133;-89
2023/03/21 12:13:22;;;;;;;3.80;1.57;;;;;;;14.34;100.00;97752.97;4874890;29;20039;-89
2023/03/21 12:16:43;;;;;;;3.03;1.30;;;;;;;14.35;100.00;97751.13;4871559;29;20096;-88
2023/03/21 12:19:37;;;;;;;5.18;1.40;;;;;;;14.32;100.00;97739.22;4872753;29;20518;-87
2023/03/21 12:27:55;;;;;;;3.25;1.60;;;;;;;14.93;100.00;97740.75;5128043;27;20383;-81
2023/03/21 12:30:47;;;;;;;3.65;1.10;;;;;;;14.95;100.00;97741.31;5122200;28;20065;-76
2023/03/21 12:36:22;;;;;;;3.50;1.33;;;;;;;15.61;100.00;97738.44;5080453;28;21082;-84
2023/03/21 12:39:34;;;;;;;4.82;1.60;;;;;;;15.66;100.00;97730.53;5081069;28;20063;-83
2023/03/21 12:42:50;;;;;;;5.20;1.50;;;;;;;15.68;100.00;97736.34;5073267;28;20493;-85
2023/03/21 12:45:43;;;;;;;5.43;1.60;;;;;;;15.62;100.00;97734.75;5078648;28;20048;-84
2023/03/21 12:48:43;;;;;;;3.47;1.58;;;;;;;15.75;100.00;97744.84;5076916;28;20122;-83
2023/03/21 12:51:39;;;;;;;10.88;2.40;;;;;;;15.41;100.00;97734.66;5074207;28;20090;-84
2023/03/21 12:54:40;;;;;;;3.90;1.20;;;;;;;15.51;100.00;97750.56;5077974;28;20426;-83
2023/03/21 12:57:31;;;;;;;6.43;1.23;;;;;;;15.00;100.00;97756.38;5072804;28;20047;-83
2023/03/21 13:00:32;;;;;;;7.20;1.40;;;;;;;15.34;100.00;97771.13;5073765;28;20494;-83
2023/03/21 13:03:26;;;;;;;3.65;1.33;;;;;;;15.83;100.00;97767.38;5076720;28;20043;-81
2023/03/21 13:06:13;;;;;;;4.78;1.40;;;;;;;16.40;100.00;97767.47;5076755;28;20079;-85
2023/03/21 13:09:22;;;;;;;7.20;1.20;;;;;;;15.96;100.00;97758.16;5075426;28;20042;-87
2023/03/21 13:12:40;;;;;;;6.28;1.58;;;;;;;15.71;100.00;97780.78;5070237;28;20465;-84